Time;durP1;ratioP1;P1;durP2;ratioP2;P2;SDS_P1;SDS_P2;PMS_P1;PMS_P2;Temp;Humidity;BMP_temperature;BMP_pressure;BME280_temperature;BME280_humidity;BME280_pressure;Samples;Min_cycle;Max_cycle;Signal;HPM_P1;HPM_P2
2022/09/24 00:01:36;;;;;;;10.40;3.78;;;;;;;;;;5030580;28;20397;-66
2022/09/24 00:04:13;;;;;;;8.65;3.55;;;;;;;;;;5030059;28;20080;-67
2022/09/24 00:06:45;;;;;;;9.38;3.72;;;;;;;;;;5025549;28;20064;-66
2022/09/24 00:09:20;;;;;;;13.40;4.15;;;;;;;;;;5030285;28;20057;-66
2022/09/24 00:11:52;;;;;;;10.02;3.70;;;;;;;;;;4997193;28;20072;-66
2022/09/24 00:14:23;;;;;;;9.65;3.83;;;;;;;;;;5014044;28;20084;-66
2022/09/24 00:16:53;;;;;;;14.45;3.83;;;;;;;;;;4970735;28;20459;-67
2022/09/24 00:19:23;;;;;;;11.55;4.10;;;;;;;;;;4970740;28;20059;-66
2022/09/24 00:21:52;;;;;;;12.90;4.00;;;;;;;;;;4971219;28;20061;-66
2022/09/24 00:27:12;;;;;;;15.77;4.43;;;;;;;;;;4939098;28;20063;-66
2022/09/24 00:29:43;;;;;;;10.73;3.92;;;;;;;;;;4990297;28;20157;-66
2022/09/24 00:32:13;;;;;;;11.13;4.32;;;;;;;;;;4970804;28;20491;-66
2022/09/24 00:34:43;;;;;;;13.70;4.50;;;;;;;;;;4971153;28;20059;-66
2022/09/24 00:37:13;;;;;;;10.48;4.57;;;;;;;;;;4975626;28;20054;-66
2022/09/24 00:39:44;;;;;;;9.45;3.90;;;;;;;;;;4990389;28;20042;-66
2022/09/24 00:42:17;;;;;;;10.45;3.35;;;;;;;;;;4974113;28;20065;-66
2022/09/24 00:44:52;;;;;;;8.35;3.17;;;;;;;;;;4973895;28;20054;-66
2022/09/24 00:47:34;;;;;;;6.97;2.72;;;;;;;;;;4989799;28;20046;-66
2022/09/24 00:50:15;;;;;;;8.48;2.92;;;;;;;;;;4989756;28;20526;-66
2022/09/24 00:52:54;;;;;;;7.80;3.45;;;;;;;;;;4990083;28;20053;-66
2022/09/24 00:55:27;;;;;;;7.68;2.97;;;;;;;;;;5006905;28;20041;-67
2022/09/24 00:57:59;;;;;;;7.80;3.25;;;;;;;;;;5009811;28;20049;-67
2022/09/24 01:00:30;;;;;;;7.55;2.80;;;;;;;;;;4961270;28;20064;-66
2022/09/24 01:03:20;;;;;;;7.28;3.08;;;;;;;;;;5009371;28;20066;-66
2022/09/24 01:05:51;;;;;;;9.88;3.42;;;;;;;;;;4976900;28;20065;-66
2022/09/24 01:08:21;;;;;;;8.85;3.85;;;;;;;;;;4992882;28;20057;-66
2022/09/24 01:10:54;;;;;;;8.40;3.42;;;;;;;;;;4978262;28;20060;-66
2022/09/24 01:13:27;;;;;;;;;;;;;;;;;;5029410;28;20056;-66
2022/09/24 01:16:31;;;;;;;7.75;3.10;;;;;;;;;;5045127;28;19928;-67
2022/09/24 01:19:37;;;;;;;5.45;2.53;;;;;;;;;;5029134;28;20414;-66
2022/09/24 01:22:37;;;;;;;9.13;2.55;;;;;;;;;;4995629;28;20049;-66
2022/09/24 01:25:35;;;;;;;10.98;3.03;;;;;;;;;;4991484;28;20068;-67
2022/09/24 01:28:14;;;;;;;6.65;3.05;;;;;;;;;;5048922;28;20061;-66
2022/09/24 01:30:48;;;;;;;8.25;3.30;;;;;;;;;;4999575;28;20072;-66
2022/09/24 01:33:21;;;;;;;8.73;3.35;;;;;;;;;;5022753;28;20048;-66
2022/09/24 01:36:00;;;;;;;11.95;3.83;;;;;;;;;;5038851;28;20094;-66
2022/09/24 01:38:33;;;;;;;6.20;3.13;;;;;;;;;;5089145;28;20044;-66
2022/09/24 01:41:07;;;;;;;7.40;2.90;;;;;;;;;;5089175;28;20048;-66
2022/09/24 01:43:38;;;;;;;10.05;3.05;;;;;;;;;;5028600;28;20057;-66
2022/09/24 01:46:11;;;;;;;10.32;3.13;;;;;;;;;;4996073;28;20501;-66
2022/09/24 01:48:42;;;;;;;8.95;4.47;;;;;;;;;;5028811;28;20517;-66
2022/09/24 01:51:32;;;;;;;10.90;3.10;;;;;;;;;;5029006;28;20057;-66
2022/09/24 01:54:15;;;;;;;7.82;3.45;;;;;;;;;;5008624;28;20526;-67
2022/09/24 01:56:52;;;;;;;8.98;3.58;;;;;;;;;;5009039;28;20049;-66
2022/09/24 01:59:31;;;;;;;11.30;3.47;;;;;;;;;;4976434;28;20054;-66
2022/09/24 02:02:08;;;;;;;9.38;3.10;;;;;;;;;;4976317;28;20054;-66
2022/09/24 02:04:46;;;;;;;12.10;4.25;;;;;;;;;;5008939;28;20049;-66
2022/09/24 02:07:24;;;;;;;8.43;3.65;;;;;;;;;;5008764;28;20498;-67
2022/09/24 02:09:55;;;;;;;8.50;3.45;;;;;;;;;;5025355;28;20058;-66
2022/09/24 02:12:40;;;;;;;8.98;3.60;;;;;;;;;;5008697;28;20065;-66
2022/09/24 02:15:19;;;;;;;10.80;3.60;;;;;;;;;;5025120;28;20414;-67
2022/09/24 02:17:54;;;;;;;7.85;3.45;;;;;;;;;;4975647;28;20054;-66
2022/09/24 02:20:28;;;;;;;7.80;3.47;;;;;;;;;;4992312;28;20430;-67
2022/09/24 02:22:59;;;;;;;12.02;4.22;;;;;;;;;;4960186;28;20061;-67
2022/09/24 02:25:45;;;;;;;13.73;3.72;;;;;;;;;;4992767;28;20062;-66
2022/09/24 02:28:16;;;;;;;11.98;3.80;;;;;;;;;;5008662;28;20050;-66
2022/09/24 02:30:53;;;;;;;11.32;4.05;;;;;;;;;;5013419;28;20498;-66
2022/09/24 02:36:13;;;;;;;14.75;4.70;;;;;;;;;;5048284;28;20053;-66
2022/09/24 02:38:45;;;;;;;12.43;4.28;;;;;;;;;;5048266;28;20049;-66
2022/09/24 02:41:17;;;;;;;11.48;3.83;;;;;;;;;;5015137;28;20053;-67
2022/09/24 02:43:47;;;;;;;12.35;3.95;;;;;;;;;;5051445;28;20053;-67
2022/09/24 02:46:17;;;;;;;10.68;4.00;;;;;;;;;;5018499;28;20053;-67
2022/09/24 02:48:48;;;;;;;11.52;3.97;;;;;;;;;;5051811;28;20055;-66
2022/09/24 02:51:18;;;;;;;12.30;4.70;;;;;;;;;;5051869;28;20045;-67
2022/09/24 02:53:49;;;;;;;12.48;3.92;;;;;;;;;;5035311;28;20064;-67
2022/09/24 02:56:18;;;;;;;13.02;5.32;;;;;;;;;;5087791;28;20060;-67
2022/09/24 02:58:48;;;;;;;12.93;5.05;;;;;;;;;;5091750;28;20055;-67
2022/09/24 03:01:19;;;;;;;12.55;5.07;;;;;;;;;;5057976;28;20063;-67
2022/09/24 03:03:48;;;;;;;13.27;4.82;;;;;;;;;;5091918;28;20059;-67
2022/09/24 03:06:19;;;;;;;15.35;5.80;;;;;;;;;;5091614;28;20151;-67
2022/09/24 03:08:49;;;;;;;12.40;5.82;;;;;;;;;;5075210;28;20063;-66
2022/09/24 03:11:23;;;;;;;15.27;6.03;;;;;;;;;;5075219;28;20110;-67
2022/09/24 03:13:53;;;;;;;12.23;5.70;;;;;;;;;;5091599;28;20048;-67
2022/09/24 03:16:27;;;;;;;14.85;5.88;;;;;;;;;;5091194;28;20157;-67
2022/09/24 03:18:57;;;;;;;13.80;6.03;;;;;;;;;;5091500;28;20059;-67
2022/09/24 03:21:27;;;;;;;21.45;7.03;;;;;;;;;;5041713;28;20056;-66
2022/09/24 03:23:59;;;;;;;12.07;5.45;;;;;;;;;;5057580;28;20064;-67
2022/09/24 03:26:29;;;;;;;12.75;5.82;;;;;;;;;;5091385;28;20054;-67
2022/09/24 03:29:00;;;;;;;11.32;5.78;;;;;;;;;;5091151;28;20040;-67
2022/09/24 03:31:31;;;;;;;16.40;7.45;;;;;;;;;;5091368;28;20036;-67
2022/09/24 03:34:01;;;;;;;15.07;6.40;;;;;;;;;;5091130;28;20051;-66
2022/09/24 03:36:31;;;;;;;13.23;5.72;;;;;;;;;;5092250;28;20063;-67
2022/09/24 03:39:01;;;;;;;14.40;5.95;;;;;;;;;;5057402;28;20044;-68
2022/09/24 03:41:32;;;;;;;15.02;6.05;;;;;;;;;;5090968;28;20514;-67
2022/09/24 03:44:01;;;;;;;15.90;5.95;;;;;;;;;;5090923;28;20056;-67
2022/09/24 03:46:31;;;;;;;15.88;6.97;;;;;;;;;;5090955;28;20056;-67
2022/09/24 03:49:01;;;;;;;18.15;7.30;;;;;;;;;;5090779;28;20166;-67
2022/09/24 03:51:32;;;;;;;17.17;6.70;;;;;;;;;;5070146;28;20045;-67
2022/09/24 03:54:02;;;;;;;14.05;6.32;;;;;;;;;;5052436;28;20053;-66
2022/09/24 03:56:32;;;;;;;14.95;7.03;;;;;;;;;;5070406;28;20067;-67
2022/09/24 03:59:02;;;;;;;15.73;7.20;;;;;;;;;;5050309;28;20053;-67
2022/09/24 04:01:34;;;;;;;18.02;6.70;;;;;;;;;;5034086;28;20065;-67
2022/09/24 04:04:04;;;;;;;15.18;6.90;;;;;;;;;;5030171;28;20049;-67
2022/09/24 04:06:35;;;;;;;19.73;8.52;;;;;;;;;;5010397;28;20166;-67
2022/09/24 04:09:05;;;;;;;18.50;8.90;;;;;;;;;;4961910;28;20074;-66
2022/09/24 04:11:35;;;;;;;24.67;9.35;;;;;;;;;;4977757;28;20816;-67
2022/09/24 04:14:05;;;;;;;15.95;7.65;;;;;;;;;;4958518;28;20053;-66
2022/09/24 04:16:36;;;;;;;17.35;7.50;;;;;;;;;;4970895;28;20055;-66
2022/09/24 04:19:06;;;;;;;18.98;8.07;;;;;;;;;;4971112;28;20062;-67
2022/09/24 04:21:38;;;;;;;19.23;8.43;;;;;;;;;;4970948;28;20062;-67
2022/09/24 04:24:08;;;;;;;13.63;7.32;;;;;;;;;;4971329;28;20062;-66
2022/09/24 04:26:38;;;;;;;16.08;7.45;;;;;;;;;;4971260;28;20055;-67
2022/09/24 04:29:08;;;;;;;17.65;7.22;;;;;;;;;;4901541;29;21149;-67
2022/09/24 04:31:39;;;;;;;19.30;7.90;;;;;;;;;;4913878;29;20055;-67
2022/09/24 04:34:09;;;;;;;15.60;7.70;;;;;;;;;;4897726;29;20508;-67
2022/09/24 04:36:39;;;;;;;21.92;8.82;;;;;;;;;;4932125;28;20068;-66
2022/09/24 04:39:10;;;;;;;17.85;7.80;;;;;;;;;;4951779;28;20067;-67
2022/09/24 04:41:42;;;;;;;22.23;7.70;;;;;;;;;;4919843;28;20058;-66
2022/09/24 04:44:14;;;;;;;20.63;9.43;;;;;;;;;;4961300;28;20051;-67
2022/09/24 04:46:44;;;;;;;19.42;9.82;;;;;;;;;;4970863;28;20526;-67
2022/09/24 04:49:14;;;;;;;21.52;9.13;;;;;;;;;;4972432;28;20091;-67
2022/09/24 04:51:44;;;;;;;20.05;9.35;;;;;;;;;;4983923;28;20062;-67
2022/09/24 04:54:14;;;;;;;17.75;8.85;;;;;;;;;;5039603;28;20056;-67
2022/09/24 04:56:44;;;;;;;19.55;9.75;;;;;;;;;;5069388;28;20049;-67
2022/09/24 04:59:14;;;;;;;20.88;9.60;;;;;;;;;;5069238;28;20041;-67
2022/09/24 05:01:45;;;;;;;23.20;9.93;;;;;;;;;;5069532;28;20056;-67
2022/09/24 05:04:15;;;;;;;20.10;8.75;;;;;;;;;;5069177;28;20052;-66
2022/09/24 05:06:45;;;;;;;19.67;7.72;;;;;;;;;;5079744;28;20067;-67
2022/09/24 05:09:14;;;;;;;18.45;8.32;;;;;;;;;;5092113;28;20047;-67
2022/09/24 05:11:45;;;;;;;18.65;8.85;;;;;;;;;;5092130;28;20040;-67
2022/09/24 05:14:15;;;;;;;18.98;9.15;;;;;;;;;;5072748;28;20052;-66
2022/09/24 05:16:45;;;;;;;23.73;9.35;;;;;;;;;;5068411;28;20063;-67
2022/09/24 05:19:15;;;;;;;22.38;9.02;;;;;;;;;;5068973;28;20559;-67
2022/09/24 05:21:45;;;;;;;20.42;9.15;;;;;;;;;;5019250;28;20052;-67
2022/09/24 05:24:15;;;;;;;20.70;9.05;;;;;;;;;;5068785;28;20485;-66
2022/09/24 05:29:34;;;;;;;19.02;8.18;;;;;;;;;;5055192;28;20535;-66
2022/09/24 05:32:10;;;;;;;20.70;9.18;;;;;;;;;;5069230;28;20245;-67
2022/09/24 05:34:42;;;;;;;19.65;9.15;;;;;;;;;;5068700;28;20048;-66
2022/09/24 05:37:14;;;;;;;20.95;8.70;;;;;;;;;;5051885;28;20044;-66
2022/09/24 05:39:45;;;;;;;22.75;9.13;;;;;;;;;;5051756;28;20056;-67
2022/09/24 05:42:15;;;;;;;21.88;8.75;;;;;;;;;;5068876;28;20056;-66
2022/09/24 05:44:44;;;;;;;18.42;8.02;;;;;;;;;;5088649;28;20048;-67
2022/09/24 05:47:20;;;;;;;17.45;8.57;;;;;;;;;;5089208;28;20052;-66
2022/09/24 05:49:50;;;;;;;19.02;8.73;;;;;;;;;;5048479;28;20056;-66
2022/09/24 05:52:20;;;;;;;18.45;9.15;;;;;;;;;;5048672;28;20061;-66
2022/09/24 05:54:50;;;;;;;17.90;8.98;;;;;;;;;;5048555;28;20084;-66
2022/09/24 05:57:20;;;;;;;21.85;8.95;;;;;;;;;;5048503;28;20079;-66
2022/09/24 05:59:49;;;;;;;20.25;9.05;;;;;;;;;;5048395;28;20053;-67
2022/09/24 06:02:19;;;;;;;20.95;9.13;;;;;;;;;;5048485;28;20049;-66
2022/09/24 06:04:49;;;;;;;20.98;8.82;;;;;;;;;;5031566;28;20057;-66
2022/09/24 06:07:20;;;;;;;17.27;8.25;;;;;;;;;;5048455;28;20065;-66
2022/09/24 06:09:51;;;;;;;19.13;8.48;;;;;;;;;;5015646;28;20108;-66
2022/09/24 06:12:22;;;;;;;17.25;7.70;;;;;;;;;;5048266;28;20049;-66
2022/09/24 06:14:53;;;;;;;19.42;8.07;;;;;;;;;;5048213;28;20057;-66
2022/09/24 06:17:26;;;;;;;16.50;7.60;;;;;;;;;;5033405;28;20064;-67
2022/09/24 06:19:56;;;;;;;18.42;8.57;;;;;;;;;;5052292;28;20150;-67
2022/09/24 06:22:27;;;;;;;19.00;8.60;;;;;;;;;;5052293;28;20065;-66
2022/09/24 06:24:58;;;;;;;21.77;8.63;;;;;;;;;;4992563;28;20495;-67
2022/09/24 06:27:29;;;;;;;20.70;8.23;;;;;;;;;;5012604;28;20092;-66
2022/09/24 06:29:59;;;;;;;15.75;7.57;;;;;;;;;;4973104;28;20067;-66
2022/09/24 06:32:30;;;;;;;16.33;7.63;;;;;;;;;;4973411;28;20051;-66
2022/09/24 06:34:59;;;;;;;18.90;7.82;;;;;;;;;;4973178;28;20070;-66
2022/09/24 06:37:30;;;;;;;18.48;7.88;;;;;;;;;;4973247;28;20062;-66
2022/09/24 06:40:00;;;;;;;21.42;7.80;;;;;;;;;;4972941;28;20499;-66
2022/09/24 06:42:30;;;;;;;17.38;8.63;;;;;;;;;;4937962;29;20077;-67
2022/09/24 06:44:59;;;;;;;19.90;8.23;;;;;;;;;;4934444;29;20052;-66
2022/09/24 06:47:29;;;;;;;18.52;7.70;;;;;;;;;;4934589;29;20052;-66
2022/09/24 06:49:59;;;;;;;17.15;7.72;;;;;;;;;;4944310;29;20060;-66
2022/09/24 06:52:29;;;;;;;20.85;8.80;;;;;;;;;;4934376;29;20048;-66
2022/09/24 06:55:00;;;;;;;16.08;6.80;;;;;;;;;;4949881;29;20055;-66
2022/09/24 06:57:30;;;;;;;16.60;6.80;;;;;;;;;;4934463;29;20073;-67
2022/09/24 06:59:59;;;;;;;17.70;6.85;;;;;;;;;;4953106;29;20412;-65
2022/09/24 07:02:30;;;;;;;15.55;7.55;;;;;;;;;;4970808;28;20060;-66
2022/09/24 07:05:00;;;;;;;15.52;6.50;;;;;;;;;;4992091;28;20525;-66
2022/09/24 07:07:33;;;;;;;15.43;7.20;;;;;;;;;;5010320;28;20061;-66
2022/09/24 07:10:06;;;;;;;17.08;7.20;;;;;;;;;;4998428;28;20053;-67
2022/09/24 07:12:36;;;;;;;16.15;6.60;;;;;;;;;;5031526;28;20057;-66
2022/09/24 07:15:08;;;;;;;19.02;6.95;;;;;;;;;;5031195;28;20052;-66
2022/09/24 07:17:38;;;;;;;14.38;7.47;;;;;;;;;;5031248;28;20046;-66
2022/09/24 07:20:08;;;;;;;15.70;7.18;;;;;;;;;;5011382;28;20472;-66
2022/09/24 07:22:41;;;;;;;18.00;7.80;;;;;;;;;;5001762;28;20059;-66
2022/09/24 07:25:11;;;;;;;20.23;7.72;;;;;;;;;;4991736;28;20533;-66
2022/09/24 07:27:41;;;;;;;15.82;6.78;;;;;;;;;;4984472;28;20058;-66
2022/09/24 07:30:12;;;;;;;19.38;6.20;;;;;;;;;;4983544;28;20054;-65
2022/09/24 07:32:42;;;;;;;18.45;7.15;;;;;;;;;;5011335;28;20387;-66
2022/09/24 07:35:12;;;;;;;18.98;7.18;;;;;;;;;;4995337;28;20038;-66
2022/09/24 07:37:42;;;;;;;17.65;7.18;;;;;;;;;;4982315;28;20057;-66
2022/09/24 07:40:12;;;;;;;21.70;8.38;;;;;;;;;;5030831;28;20065;-66
2022/09/24 07:42:48;;;;;;;17.08;6.78;;;;;;;;;;5031104;28;20181;-65
2022/09/24 07:45:19;;;;;;;19.73;8.07;;;;;;;;;;4998000;28;20753;-66
2022/09/24 07:47:59;;;;;;;20.77;7.70;;;;;;;;;;5030879;28;20072;-66
2022/09/24 07:50:33;;;;;;;22.33;8.32;;;;;;;;;;5030683;28;20080;-65
2022/09/24 07:53:05;;;;;;;19.75;7.25;;;;;;;;;;5030477;28;20068;-66
2022/09/24 07:55:38;;;;;;;18.45;6.60;;;;;;;;;;5030498;28;20494;-65
2022/09/24 07:58:15;;;;;;;13.63;5.63;;;;;;;;;;5012587;28;20053;-66
2022/09/24 08:00:45;;;;;;;13.18;5.80;;;;;;;;;;5050551;28;20049;-65
2022/09/24 08:03:15;;;;;;;14.75;5.90;;;;;;;;;;5050486;28;20045;-65
2022/09/24 08:05:46;;;;;;;12.13;5.78;;;;;;;;;;5057135;28;20052;-66
2022/09/24 08:08:19;;;;;;;13.27;5.85;;;;;;;;;;5070693;28;20052;-65
2022/09/24 08:10:49;;;;;;;16.92;7.53;;;;;;;;;;5070268;28;20072;-66
2022/09/24 08:13:19;;;;;;;18.63;6.43;;;;;;;;;;5070059;28;20597;-67
2022/09/24 08:15:58;;;;;;;18.17;6.90;;;;;;;;;;5069531;28;20603;-65
2022/09/24 08:18:30;;;;;;;;;;;;;;;;;;5050466;28;20071;-66
2022/09/24 08:21:08;;;;;;;14.45;5.80;;;;;;;;;;5050133;28;19927;-66
2022/09/24 08:23:39;;;;;;;17.02;5.45;;;;;;;;;;5049801;28;20056;-66
2022/09/24 08:26:11;;;;;;;15.15;5.82;;;;;;;;;;5066323;28;20052;-65
2022/09/24 08:28:42;;;;;;;13.55;5.70;;;;;;;;;;5033209;28;20064;-65
2022/09/24 08:31:12;;;;;;;12.98;5.47;;;;;;;;;;5033215;28;20049;-65
2022/09/24 08:33:45;;;;;;;12.68;5.03;;;;;;;;;;5049808;28;20556;-65
2022/09/24 08:36:17;;;;;;;11.75;4.32;;;;;;;;;;5049554;28;20060;-65
2022/09/24 08:38:47;;;;;;;13.70;5.10;;;;;;;;;;5029557;28;20072;-66
2022/09/24 08:41:52;;;;;;;16.90;4.88;;;;;;;;;;4980458;28;20053;-65
2022/09/24 08:47:44;;;;;;;8.60;4.18;;;;;;;;;;5029428;28;20053;-66
2022/09/24 08:50:25;;;;;;;10.35;4.57;;;;;;;;;;5026354;28;20052;-65
2022/09/24 08:53:22;;;;;;;11.57;4.55;;;;;;;;;;5052841;28;20068;-65
2022/09/24 08:55:56;;;;;;;10.75;4.30;;;;;;;;;;5019540;28;20060;-65
2022/09/24 08:59:08;;;;;;;10.32;4.43;;;;;;;;;;5069353;28;20053;-66
2022/09/24 09:01:38;;;;;;;11.95;4.63;;;;;;;;;;4990053;28;20402;-65
2022/09/24 09:04:56;;;;;;;10.52;4.75;;;;;;;;;;4989993;28;20085;-65
2022/09/24 09:07:55;;;;;;;15.10;5.22;;;;;;;;;;4897258;29;20055;-66
2022/09/24 09:10:37;;;;;;;12.95;4.57;;;;;;;;;;4913019;29;20063;-65
2022/09/24 09:13:20;;;;;;;13.38;4.38;;;;;;;;;;4912775;29;20048;-66
2022/09/24 09:16:02;;;;;;;11.48;4.25;;;;;;;;;;4917851;29;20066;-65
2022/09/24 09:18:45;;;;;;;11.30;4.28;;;;;;;;;;4932048;29;20055;-65
2022/09/24 09:21:19;;;;;;;10.20;4.00;;;;;;;;;;4932082;29;20429;-66
2022/09/24 09:23:52;;;;;;;9.18;4.32;;;;;;;;;;4932228;29;20087;-65
2022/09/24 09:26:24;;;;;;;10.05;4.32;;;;;;;;;;4950892;29;20074;-65
2022/09/24 09:29:01;;;;;;;11.48;4.45;;;;;;;;;;4950830;29;20059;-65
2022/09/24 09:32:08;;;;;;;7.70;3.75;;;;;;;;;;4951000;29;20063;-66
2022/09/24 09:34:57;;;;;;;9.00;3.75;;;;;;;;;;4862811;29;20063;-69
2022/09/24 09:37:46;;;;;;;9.60;4.20;;;;;;;;;;4894041;29;20064;-65
2022/09/24 09:40:35;;;;;;;11.73;4.63;;;;;;;;;;4970160;28;20065;-65
2022/09/24 09:43:10;;;;;;;9.15;4.55;;;;;;;;;;5009056;28;20081;-65
2022/09/24 09:45:46;;;;;;;7.63;4.00;;;;;;;;;;5009045;28;20061;-65
2022/09/24 09:48:18;;;;;;;9.32;4.55;;;;;;;;;;5009037;28;20045;-65
2022/09/24 09:50:58;;;;;;;9.00;3.83;;;;;;;;;;5008973;28;20049;-65
2022/09/24 09:53:32;;;;;;;10.10;4.28;;;;;;;;;;5031155;28;20046;-66
2022/09/24 09:56:06;;;;;;;9.82;4.95;;;;;;;;;;5032919;28;20069;-65
2022/09/24 09:58:44;;;;;;;12.20;4.85;;;;;;;;;;5032669;28;20061;-65
2022/09/24 10:01:19;;;;;;;13.60;4.88;;;;;;;;;;4984079;28;20064;-65
2022/09/24 10:03:49;;;;;;;10.95;4.85;;;;;;;;;;5032765;28;20041;-65
2022/09/24 10:06:28;;;;;;;14.07;4.60;;;;;;;;;;5032705;28;20065;-66
2022/09/24 10:09:11;;;;;;;;;;;;;;;;;;5000527;28;20064;-66
2022/09/24 10:11:42;;;;;;;9.25;4.63;;;;;;;;;;5071126;28;19920;-66
2022/09/24 10:14:15;;;;;;;12.60;4.93;;;;;;;;;;5079256;28;20059;-65
2022/09/24 10:16:53;;;;;;;11.40;5.00;;;;;;;;;;5072022;28;20056;-66
2022/09/24 10:19:27;;;;;;;12.48;5.50;;;;;;;;;;5056287;28;20063;-66
2022/09/24 10:22:05;;;;;;;12.48;4.82;;;;;;;;;;5072280;28;20048;-66
2022/09/24 10:24:40;;;;;;;13.68;5.13;;;;;;;;;;5072387;28;20056;-66
2022/09/24 10:27:14;;;;;;;13.25;5.35;;;;;;;;;;5035015;28;20049;-66
2022/09/24 10:32:33;;;;;;;12.70;5.05;;;;;;;;;;5032137;28;20050;-68
2022/09/24 10:35:38;;;;;;;12.55;4.95;;;;;;;;;;5032153;28;20065;-68
2022/09/24 10:38:23;;;;;;;11.75;5.38;;;;;;;;;;4983244;28;20053;-68
2022/09/24 10:40:55;;;;;;;17.80;7.10;;;;;;;;;;5031879;28;20414;-68
2022/09/24 10:43:26;;;;;;;12.15;4.95;;;;;;;;;;5031775;28;20053;-68
2022/09/24 10:46:27;;;;;;;11.43;5.55;;;;;;;;;;5011892;28;20061;-68
2022/09/24 10:49:36;;;;;;;10.82;4.50;;;;;;;;;;5012040;28;20054;-68
2022/09/24 10:52:13;;;;;;;11.43;4.20;;;;;;;;;;4972823;28;20051;-69
2022/09/24 10:55:07;;;;;;;10.57;4.65;;;;;;;;;;4972970;28;20420;-68
2022/09/24 10:57:59;;;;;;;14.82;4.90;;;;;;;;;;4972477;28;20058;-67
2022/09/24 11:00:47;;;;;;;13.88;4.63;;;;;;;;;;4992095;28;20054;-67
2022/09/24 11:03:41;;;;;;;9.88;4.10;;;;;;;;;;4991822;28;20065;-68
2022/09/24 11:06:31;;;;;;;8.07;4.03;;;;;;;;;;5011882;28;20049;-67
2022/09/24 11:09:18;;;;;;;13.70;4.13;;;;;;;;;;4972818;28;20088;-67
2022/09/24 11:12:00;;;;;;;9.13;4.00;;;;;;;;;;4972769;28;20421;-67
2022/09/24 11:15:05;;;;;;;9.40;3.42;;;;;;;;;;4972662;28;20059;-67
2022/09/24 11:17:46;;;;;;;8.27;2.67;;;;;;;;;;4972312;28;20066;-66
2022/09/24 11:20:35;;;;;;;8.85;2.95;;;;;;;;;;4991888;28;20059;-66
2022/09/24 11:23:17;;;;;;;8.57;2.95;;;;;;;;;;4972374;28;20055;-67
2022/09/24 11:26:18;;;;;;;8.77;3.50;;;;;;;;;;4956521;28;20058;-67
2022/09/24 11:29:00;;;;;;;7.07;3.10;;;;;;;;;;4958025;28;20186;-67
2022/09/24 11:32:04;;;;;;;9.85;3.50;;;;;;;;;;4972267;28;20063;-67
2022/09/24 11:35:08;;;;;;;7.38;2.92;;;;;;;;;;4895629;29;20071;-67
2022/09/24 11:37:55;;;;;;;6.78;2.95;;;;;;;;;;4901557;29;20079;-67
2022/09/24 11:40:46;;;;;;;11.82;2.92;;;;;;;;;;4914793;29;20505;-67
2022/09/24 11:43:17;;;;;;;6.55;2.80;;;;;;;;;;4914642;29;20052;-67
2022/09/24 11:46:05;;;;;;;4.75;2.17;;;;;;;;;;4914647;29;20521;-68
2022/09/24 11:48:53;;;;;;;3.95;1.60;;;;;;;;;;4914718;29;20409;-67
2022/09/24 11:51:44;;;;;;;5.22;1.67;;;;;;;;;;4933810;29;20503;-67
2022/09/24 11:54:29;;;;;;;2.42;1.13;;;;;;;;;;4952619;29;20066;-67
2022/09/24 11:57:25;;;;;;;5.30;1.70;;;;;;;;;;4952478;29;20408;-67
2022/09/24 12:00:12;;;;;;;4.82;1.33;;;;;;;;;;4891676;29;20068;-68
2022/09/24 12:03:21;;;;;;;3.70;1.30;;;;;;;;;;4876802;29;20078;-68
2022/09/24 12:06:01;;;;;;;4.38;1.42;;;;;;;;;;4858094;29;20065;-67
2022/09/24 12:08:51;;;;;;;2.38;1.02;;;;;;;;;;4858039;29;20432;-67
2022/09/24 12:11:47;;;;;;;3.85;1.00;;;;;;;;;;4834716;29;20054;-67
2022/09/24 12:14:43;;;;;;;1.77;0.80;;;;;;;;;;4821492;29;20554;-68
2022/09/24 12:17:25;;;;;;;3.67;1.17;;;;;;;;;;4820952;29;20124;-67
2022/09/24 12:20:27;;;;;;;3.47;1.05;;;;;;;;;;4791069;29;20054;-68
2022/09/24 12:23:03;;;;;;;3.53;1.23;;;;;;;;;;4832492;29;20057;-67
2022/09/24 12:25:41;;;;;;;4.88;1.80;;;;;;;;;;4842152;29;20049;-67
2022/09/24 12:32:52;;;;;;;6.22;1.23;;;;;;;;;;4863130;29;20060;-68
2022/09/24 12:34:41;;;;;;;4.60;1.38;;;;;;;;;;4894853;29;20057;-68
2022/09/24 12:37:19;;;;;;;4.82;1.50;;;;;;;;;;4874612;29;20067;-67
2022/09/24 12:39:57;;;;;;;;;;;;;;;;;;4895150;29;20103;-68
2022/09/24 12:42:30;;;;;;;;;;;;;;;;;;4936582;28;19930;-68
2022/09/24 12:45:03;;;;;;;4.05;1.38;;;;;;;;;;4919539;28;20374;-68
2022/09/24 12:47:45;;;;;;;11.45;5.75;;;;;;;;;;4916255;29;20590;-68
2022/09/24 12:50:26;;;;;;;4.57;1.88;;;;;;;;;;4932218;29;20063;-68
2022/09/24 12:52:57;;;;;;;3.88;1.50;;;;;;;;;;4932332;29;20056;-69
2022/09/24 12:55:33;;;;;;;5.43;2.25;;;;;;;;;;4916680;29;20067;-68
2022/09/24 12:58:06;;;;;;;5.05;1.63;;;;;;;;;;4931768;29;20054;-68
2022/09/24 13:00:44;;;;;;;3.50;1.42;;;;;;;;;;4932232;29;20059;-68
2022/09/24 13:03:36;;;;;;;4.65;2.28;;;;;;;;;;4900508;29;20183;-69
2022/09/24 13:06:33;;;;;;;9.40;4.30;;;;;;;;;;4932294;29;20514;-69
2022/09/24 13:09:39;;;;;;;24.98;11.80;;;;;;;;;;4912186;28;20051;-70
2022/09/24 13:12:13;;;;;;;6.00;3.10;;;;;;;;;;4951120;28;20062;-68
2022/09/24 13:15:03;;;;;;;3.53;1.45;;;;;;;;;;4990028;28;20417;-72
2022/09/24 13:17:37;;;;;;;5.10;2.42;;;;;;;;;;5008654;28;20501;-69
2022/09/24 13:20:26;;;;;;;3.28;1.10;;;;;;;;;;5009338;28;20062;-68
2022/09/24 13:23:13;;;;;;;3.92;1.70;;;;;;;;;;4989565;28;20462;-68
2022/09/24 13:25:54;;;;;;;6.53;3.13;;;;;;;;;;5003480;28;20410;-68
2022/09/24 13:28:29;;;;;;;3.85;1.38;;;;;;;;;;4960752;28;20049;-68
2022/09/24 13:31:22;;;;;;;3.17;1.30;;;;;;;;;;4989651;28;20047;-69
2022/09/24 13:34:09;;;;;;;;;;;;;;;;;;4989948;28;20065;-68
2022/09/24 13:36:58;;;;;;;4.38;1.80;;;;;;;;;;4957096;28;20397;-70
2022/09/24 13:39:56;;;;;;;6.72;1.67;;;;;;;;;;4989497;28;20057;-68
2022/09/24 13:42:55;;;;;;;3.97;1.50;;;;;;;;;;4950373;28;20399;-69
2022/09/24 13:45:27;;;;;;;4.43;1.35;;;;;;;;;;4919087;28;20062;-67
2022/09/24 13:48:04;;;;;;;4.18;1.67;;;;;;;;;;4950633;29;20062;-68
2022/09/24 13:50:39;;;;;;;5.57;2.90;;;;;;;;;;4935072;29;20071;-68
2022/09/24 13:53:30;;;;;;;4.22;1.63;;;;;;;;;;4950689;28;20052;-68
2022/09/24 13:56:04;;;;;;;4.35;1.83;;;;;;;;;;4969602;28;20051;-68
2022/09/24 13:58:40;;;;;;;8.95;3.65;;;;;;;;;;4969845;28;20065;-68
2022/09/24 14:01:17;;;;;;;7.82;1.73;;;;;;;;;;5014821;28;20057;-69
2022/09/24 14:03:58;;;;;;;5.10;1.67;;;;;;;;;;5009092;28;20046;-68
2022/09/24 14:06:39;;;;;;;4.15;1.60;;;;;;;;;;5008628;28;20509;-68
2022/09/24 14:09:37;;;;;;;12.20;5.40;;;;;;;;;;5002092;28;20183;-68
2022/09/24 14:12:15;;;;;;;4.85;1.65;;;;;;;;;;4972809;28;20062;-69
2022/09/24 14:14:51;;;;;;;3.83;1.55;;;;;;;;;;5005265;28;20055;-69
2022/09/24 14:17:22;;;;;;;3.10;1.45;;;;;;;;;;4988877;28;20058;-67
2022/09/24 14:19:56;;;;;;;3.85;1.50;;;;;;;;;;4988979;28;20057;-68
2022/09/24 14:22:35;;;;;;;4.50;2.33;;;;;;;;;;4989066;28;20054;-68
2022/09/24 14:25:25;;;;;;;3.78;1.63;;;;;;;;;;4988983;28;20471;-68
2022/09/24 14:27:58;;;;;;;4.97;1.00;;;;;;;;;;4988893;28;20062;-69
2022/09/24 14:30:31;;;;;;;5.13;1.23;;;;;;;;;;4972763;28;20065;-68
2022/09/24 14:33:07;;;;;;;5.50;1.20;;;;;;;;;;4952417;28;20063;-69
2022/09/24 14:35:38;;;;;;;2.20;1.10;;;;;;;;;;5048115;28;20408;-68
2022/09/24 14:38:34;;;;;;;2.53;1.02;;;;;;;;;;4999567;28;20410;-68
2022/09/24 14:41:17;;;;;;;19.83;12.30;;;;;;;;;;5002477;28;20493;-68
2022/09/24 14:44:02;;;;;;;7.10;3.33;;;;;;;;;;5002478;28;20068;-68
2022/09/24 14:46:47;;;;;;;3.75;1.60;;;;;;;;;;5018433;28;20056;-68
2022/09/24 14:49:22;;;;;;;3.33;1.52;;;;;;;;;;5033692;28;20183;-68
2022/09/24 14:51:55;;;;;;;3.75;1.20;;;;;;;;;;5042166;28;20052;-69
2022/09/24 14:54:32;;;;;;;9.82;5.57;;;;;;;;;;5075374;28;20060;-70
2022/09/24 14:57:18;;;;;;;7.57;4.25;;;;;;;;;;5058843;28;20059;-70
2022/09/24 14:59:49;;;;;;;3.88;1.20;;;;;;;;;;5058804;28;20511;-68
2022/09/24 15:02:36;;;;;;;2.83;1.30;;;;;;;;;;5094220;28;20040;-69
2022/09/24 15:05:07;;;;;;;2.83;1.17;;;;;;;;;;5092012;28;20056;-68
2022/09/24 15:07:38;;;;;;;3.03;1.38;;;;;;;;;;5094066;28;20040;-68
2022/09/24 15:10:20;;;;;;;3.60;1.48;;;;;;;;;;5094229;28;20055;-68
2022/09/24 15:12:51;;;;;;;3.03;0.90;;;;;;;;;;5075648;28;20559;-68
2022/09/24 15:15:23;;;;;;;2.78;1.10;;;;;;;;;;5094193;28;20048;-68
2022/09/24 15:17:54;;;;;;;2.72;1.30;;;;;;;;;;5091586;28;20059;-68
2022/09/24 15:20:25;;;;;;;2.55;0.95;;;;;;;;;;5093979;28;20051;-68
2022/09/24 15:22:55;;;;;;;2.92;1.23;;;;;;;;;;5074965;28;20044;-69
2022/09/24 15:25:26;;;;;;;2.30;0.90;;;;;;;;;;5093736;28;20047;-68
2022/09/24 15:27:57;;;;;;;3.50;1.10;;;;;;;;;;5093909;28;20050;-68
2022/09/24 15:30:29;;;;;;;2.25;1.00;;;;;;;;;;5057745;28;20048;-68
2022/09/24 15:32:59;;;;;;;2.70;1.27;;;;;;;;;;5093971;28;20051;-68
2022/09/24 15:35:29;;;;;;;4.38;1.20;;;;;;;;;;5093489;28;20051;-69
2022/09/24 15:37:59;;;;;;;2.38;0.93;;;;;;;;;;5093715;28;20040;-69
2022/09/24 15:40:35;;;;;;;3.50;1.17;;;;;;;;;;5093640;28;20511;-69
2022/09/24 15:43:22;;;;;;;2.05;1.00;;;;;;;;;;5093575;28;20044;-70
2022/09/24 15:45:53;;;;;;;2.67;1.45;;;;;;;;;;5093592;28;20048;-69
2022/09/24 15:48:23;;;;;;;3.55;1.30;;;;;;;;;;5090680;28;20407;-67
2022/09/24 15:50:54;;;;;;;2.88;1.20;;;;;;;;;;5091319;28;20194;-70